Verifier — MLWN4 — position and weather

sailwx.info

Track history (hours):
 
Tides and Currents Weather Stations Pressure Air Temp Water Temp Dewpoint Dewpoint Depression Visibility Wind Speed Wind Dir Waves Ship Positions

Verifier

Last reported at 2015-May-22 15:32 UTC. Time now 2015-May-29 20:20 UTC.
Position N 51°31' E 000°60'.

Length 21 m; draft 5 m.

Type: Port tender. MMSI: 235000932.

Date/timePositionNaut miles runAvg speedWind from/ knotsBaromVisibWave heightAir tempDewpointWater temp
2015-May-22 15:32N 51°31' E 000°60'1110.0
2015-May-22 14:26N 51°36' E 001°16'4 5.1
2015-May-22 13:33N 51°40' E 001°19'1 1.2
2015-May-22 12:33N 51°41' E 001°21'0 0.3
2015-May-22 11:33N 51°41' E 001°21'1 1.1
2015-May-22 10:33N 51°40' E 001°19'1 0.8
2015-May-22 09:33N 51°40' E 001°18'1615.4
2015-May-22 08:32N 51°31' E 000°57'5 0.3
2015-May-21 16:32N 51°30' E 000°50'1919.0
2015-May-21 15:34N 51°39' E 001°17'0 0.1
2015-May-21 14:34N 51°39' E 001°17'1 1.0
2015-May-21 13:33N 51°38' E 001°17'2 2.0
2015-May-21 12:33N 51°40' E 001°18'0 0.5
2015-May-21 11:33N 51°40' E 001°18'5 4.8
2015-May-21 10:33N 51°37' E 001°13'1717.1
2015-May-21 09:34N 51°29' E 000°49'  
2015-May-13 15:32N 51°30' E 000°51'1818.9
2015-May-13 14:33N 51°40' E 001°17'1 1.2
2015-May-13 13:33N 51°40' E 001°18'1 1.4
2015-May-13 12:34N 51°40' E 001°16'1 1.2
2015-May-13 11:33N 51°40' E 001°18'0 0.1
2015-May-13 10:33N 51°41' E 001°17'1 1.4
2015-May-13 09:33N 51°40' E 001°16'1817.2
2015-May-13 08:32N 51°30' E 000°52'3 0.2
2015-May-12 18:19N 51°30' E 000°48'1823.0
2015-May-12 17:33N 51°37' E 001°14'5 5.2
2015-May-12 16:33N 51°41' E 001°20'0 0.2
2015-May-12 15:33N 51°41' E 001°20'  
Track history (hours):
 
Tides and Currents Weather Stations Pressure Air Temp Water Temp Dewpoint Dewpoint Depression Visibility Wind Speed Wind Dir Waves Ship Positions

Verifier

Last reported at 2015-May-22 15:32 UTC. Time now 2015-May-29 20:20 UTC.
Position N 51°31' E 000°60'.

Length 21 m; draft 5 m.

Type: Port tender. MMSI: 235000932.

Date/timePositionNaut miles runAvg speedWind from/ knotsBaromVisibWave heightAir tempDewpointWater temp
2015-May-22 15:32N 51°31' E 000°60'1110.0
2015-May-22 14:26N 51°36' E 001°16'4 5.1
2015-May-22 13:33N 51°40' E 001°19'1 1.2
2015-May-22 12:33N 51°41' E 001°21'0 0.3
2015-May-22 11:33N 51°41' E 001°21'1 1.1
2015-May-22 10:33N 51°40' E 001°19'1 0.8
2015-May-22 09:33N 51°40' E 001°18'1615.4
2015-May-22 08:32N 51°31' E 000°57'5 0.3
2015-May-21 16:32N 51°30' E 000°50'1919.0
2015-May-21 15:34N 51°39' E 001°17'0 0.1
2015-May-21 14:34N 51°39' E 001°17'1 1.0
2015-May-21 13:33N 51°38' E 001°17'2 2.0
2015-May-21 12:33N 51°40' E 001°18'0 0.5
2015-May-21 11:33N 51°40' E 001°18'5 4.8
2015-May-21 10:33N 51°37' E 001°13'1717.1
2015-May-21 09:34N 51°29' E 000°49'  
2015-May-13 15:32N 51°30' E 000°51'1818.9
2015-May-13 14:33N 51°40' E 001°17'1 1.2
2015-May-13 13:33N 51°40' E 001°18'1 1.4
2015-May-13 12:34N 51°40' E 001°16'1 1.2
2015-May-13 11:33N 51°40' E 001°18'0 0.1
2015-May-13 10:33N 51°41' E 001°17'1 1.4
2015-May-13 09:33N 51°40' E 001°16'1817.2
2015-May-13 08:32N 51°30' E 000°52'3 0.2
2015-May-12 18:19N 51°30' E 000°48'1823.0
2015-May-12 17:33N 51°37' E 001°14'5 5.2
2015-May-12 16:33N 51°41' E 001°20'0 0.2
2015-May-12 15:33N 51°41' E 001°20'  

Dump ship's entire track history